Terminal Aerodrome Forecast
Issued by NWS

Home | Current Version | Previous Version | Text Only | Print | Product List | Glossary On
Versions: 1 2 3 4 5 6 7 8 9 10 11 12 13 14 15 16 17 18 19 20 21
000
FTUS43 KGRB 281800 AAA
TAFATW
TAF AMD
KATW 281805Z 2818/2918 27008KT P6SM SCT015 BKN040
     FM282000 29005KT P6SM BKN040
     FM290300 34005KT P6SM SCT040 BKN250
     FM291400 34006KT P6SM SCT025 BKN100=

USA.gov is the U.S. government's official web portal to all federal, state and local government web resources and services.